Halle Kroellwitz, Germany

4:46 AM CEST on October 23, 2014 (GMT +0200)
ISACHSEN100 | Change Station
CLOSE
Current Station
Personal Weather Station
Location: Halle, SACHSEN-ANHALT
Elevation: 305 ft
Nearby Weather Stations

Elev 305 ft 51.51 °N, 11.89 °E | Updated 3 minutes ago

Light Rain
Light Rain
48.4 °F
Feels Like 48 °F
N
3.0
Wind Variable Wind from WSW

Today
High -- | Low -- °F
--% Chance of Precip.
Yesterday
High -- | Low -- °F
Precip. -- in
7:49 AM 6:02 PM
Waning Crescent, 1% visible
Pressure 30.01 in
Visibility 4.3 miles
Clouds Mostly Cloudy 400 ft
Windchill 48 °F
Dew Point 48 °F
Humidity 97%
Rainfall 0.04 in
Snow Depth Not available.
UV 0 out of 12
Pollen Not available.
Air Quality Not available.
Flu Activity Not available.
METAR EDDP 230220Z 32016KT 7000 -RA BKN004 10/10 Q1016 TEMPO BKN005

More Conditions Fewer Conditions

Pressure 30.01 in
Visibility 4.3 miles
Clouds Mostly Cloudy 400 ft
Windchill 48 °F
Dew Point 48 °F
Humidity 97%
Rainfall 0.04 in
Snow Depth Not available.
UV 0 out of 12
Pollen Not available.
Air Quality Not available.
Flu Activity Not available.
METAR EDDP 230220Z 32016KT 7000 -RA BKN004 10/10 Q1016 TEMPO BKN005

More Conditions Fewer Conditions

10-Day Weather Forecast

Almanac

Astronomy

Oct. 23, 2014 Rise Set
Actual Time 7:49 AM CEST 6:02 PM CEST
Civil Twilight 7:15 AM CEST 6:36 PM CEST
Nautical Twilight 6:36 AM CEST 7:15 PM CEST
Astronomical Twilight 5:57 AM CEST 7:54 PM CEST
Moon 7:08 AM CEST 5:55 PM CEST
Length of Visible Light 11h 21m
Length of Day
10h 13m
Tomorrow will be 3m 44s shorter.
Waning Crescent, 1% of the Moon is Illuminated
Oct 22
Waning Crescent
Oct 23
New
Oct 30
First Quarter
Nov 6
Full
Nov 14
Last Quarter

Yesterday's Extremes

Country Highs Country Lows

Community

WunderPhotos

Upload Photos

1,764,115 photos uploaded!

Nearby

Snow Depth

Not available.

Earthquake Activity

City Distance Mag. Time & Date
No recent earthquake activity has been reported nearby.
Minimum magnitude displayed is 2.5.

Coastal Water Temperatures

Place Temperature
No Stations Reporting

Nearby Weather Stations